CYSG weather

St Georges Airport
St Georges, Quebec, Canada

Public forecast

Using degrees Celsius for public forecast. Weather courtesy of forecast.io.

METAR (pilot weather report)

Closest report is Quebec Jean Lesage International Airport, 50.3 nm (93.1 km) NNW. Retrieved 2019/04/19 23:34 UTC (40 minutes ago):

CYQB 192334Z 07012KT 6SM -RA BR BKN005 OVC027 04/04 A2983 RMK SF5SC3 SLP107

TAF (pilot weather forecast)

Forecast is more than 12 hours old.

Closest forecast is Quebec Jean Lesage International Airport, 50.3 nm (93.1 km) NNW. Retrieved 2019/04/19 00:42 UTC (24 hours ago):

TAF CYQB 192338Z 2000/2024 07010KT 3SM -RA BR OVC004 TEMPO 2000/2006 6SM BR OVC010 FM200600 06012KT 21/2SM -RA BR OVC004 TEMPO 2006/2014 6SM BR BECMG 2011/2013 06018KT FM201400 06015KT 3SM -RA BR BKN006 OVC015 BECMG 2015/2017 06018G28KT FM201700 06018G28KT 6SM -DZ BR SCT006 OVC015 FM202100 07015G25KT 6SM -RA BR BKN008 OVC012 RMK NXT FCST BY 200600Z